Time;durP1;ratioP1;P1;durP2;ratioP2;P2;SDS_P1;SDS_P2;PMS_P1;PMS_P2;Temp;Humidity;BMP_temperature;BMP_pressure;BME280_temperature;BME280_humidity;BME280_pressure;Samples;Min_cycle;Max_cycle;Signal;HPM_P1;HPM_P2
2021/12/03 00:01:09;;;;;;;6.20;3.80;;;;;;;;;;5077523;28;20199;-71
2021/12/03 00:03:34;;;;;;;5.43;3.50;;;;;;;;;;5071803;28;20218;-70
2021/12/03 00:05:59;;;;;;;7.97;4.17;;;;;;;;;;5088022;28;20634;-71
2021/12/03 00:08:26;;;;;;;8.13;4.27;;;;;;;;;;5082268;28;20177;-71
2021/12/03 00:10:56;;;;;;;8.93;4.30;;;;;;;;;;5082955;28;20269;-71
2021/12/03 00:13:22;;;;;;;8.13;4.40;;;;;;;;;;5079327;28;20241;-70
2021/12/03 00:15:48;;;;;;;7.60;4.53;;;;;;;;;;5081683;28;20190;-73
2021/12/03 00:18:13;;;;;;;10.70;4.50;;;;;;;;;;5064112;28;20226;-71
2021/12/03 00:20:39;;;;;;;8.60;3.60;;;;;;;;;;5067143;28;20208;-70
2021/12/03 00:23:05;;;;;;;9.93;4.40;;;;;;;;;;5082128;28;20225;-70
2021/12/03 00:25:30;;;;;;;9.93;4.70;;;;;;;;;;5081339;28;20196;-71
2021/12/03 00:27:56;;;;;;;7.57;4.50;;;;;;;;;;5062881;28;20177;-70
2021/12/03 00:30:21;;;;;;;7.87;4.73;;;;;;;;;;5082896;28;20252;-71
2021/12/03 00:32:47;;;;;;;13.67;5.30;;;;;;;;;;5076007;28;20206;-72
2021/12/03 00:35:13;;;;;;;8.93;4.70;;;;;;;;;;5069561;28;20200;-71
2021/12/03 00:37:39;;;;;;;6.90;4.43;;;;;;;;;;5072404;28;20212;-72
2021/12/03 00:40:05;;;;;;;7.80;5.07;;;;;;;;;;5072645;28;20200;-71
2021/12/03 00:42:31;;;;;;;7.83;4.43;;;;;;;;;;5070264;28;20187;-71
2021/12/03 00:44:56;;;;;;;11.13;5.50;;;;;;;;;;5069240;28;20223;-70
2021/12/03 00:47:23;;;;;;;9.87;5.10;;;;;;;;;;5077223;28;20298;-70
2021/12/03 00:49:48;;;;;;;6.57;5.40;;;;;;;;;;5068962;28;20177;-70
2021/12/03 00:52:13;;;;;;;12.83;4.90;;;;;;;;;;5071280;28;20229;-72
2021/12/03 00:54:39;;;;;;;7.50;5.33;;;;;;;;;;5070878;28;20238;-72
2021/12/03 00:57:04;;;;;;;6.50;4.93;;;;;;;;;;5069887;28;20184;-72
2021/12/03 00:59:30;;;;;;;10.33;4.97;;;;;;;;;;5070701;28;20186;-69
2021/12/03 01:01:55;;;;;;;9.43;5.13;;;;;;;;;;5077140;28;20250;-70
2021/12/03 01:04:21;;;;;;;6.70;4.13;;;;;;;;;;5067981;28;20580;-70
2021/12/03 01:06:46;;;;;;;7.93;4.67;;;;;;;;;;5069074;28;21963;-72
2021/12/03 01:09:11;;;;;;;8.53;4.03;;;;;;;;;;5068611;28;20733;-72
2021/12/03 01:11:36;;;;;;;6.37;3.57;;;;;;;;;;5070772;28;20230;-71
2021/12/03 01:14:02;;;;;;;6.17;3.70;;;;;;;;;;5072433;28;20203;-71
2021/12/03 01:16:28;;;;;;;7.43;4.40;;;;;;;;;;5080863;28;20212;-70
2021/12/03 01:18:54;;;;;;;5.60;3.23;;;;;;;;;;5079446;28;20224;-71
2021/12/03 01:21:19;;;;;;;7.47;3.60;;;;;;;;;;5075741;28;20857;-70
2021/12/03 01:23:44;;;;;;;6.87;3.37;;;;;;;;;;5071936;28;20358;-70
2021/12/03 01:26:10;;;;;;;8.63;3.40;;;;;;;;;;5075453;28;20172;-71
2021/12/03 01:28:35;;;;;;;5.33;3.53;;;;;;;;;;5073270;28;20176;-70
2021/12/03 01:31:00;;;;;;;8.57;3.90;;;;;;;;;;5072186;28;20189;-71
2021/12/03 01:33:26;;;;;;;8.53;3.40;;;;;;;;;;5074752;28;20204;-71
2021/12/03 01:35:51;;;;;;;6.63;3.83;;;;;;;;;;5073380;28;20681;-70
2021/12/03 01:38:16;;;;;;;8.30;3.47;;;;;;;;;;5072696;28;20654;-69
2021/12/03 01:40:42;;;;;;;6.73;3.50;;;;;;;;;;5072929;28;20850;-69
2021/12/03 01:43:09;;;;;;;6.97;3.43;;;;;;;;;;5072334;28;20180;-69
2021/12/03 01:45:36;;;;;;;5.50;3.10;;;;;;;;;;5074296;28;20173;-71
2021/12/03 01:48:01;;;;;;;6.80;3.20;;;;;;;;;;5053969;28;20194;-71
2021/12/03 01:50:32;;;;;;;7.37;2.97;;;;;;;;;;5070664;28;20222;-72
2021/12/03 01:52:57;;;;;;;8.50;2.73;;;;;;;;;;5070925;28;20587;-70
2021/12/03 01:55:23;;;;;;;3.53;2.30;;;;;;;;;;5073272;28;20273;-71
2021/12/03 01:57:48;;;;;;;5.13;2.43;;;;;;;;;;5071085;28;20883;-70
2021/12/03 02:00:16;;;;;;;4.17;2.70;;;;;;;;;;5072027;28;20217;-70
2021/12/03 02:02:41;;;;;;;6.10;3.33;;;;;;;;;;5072084;28;20657;-69
2021/12/03 02:05:07;;;;;;;6.50;2.87;;;;;;;;;;5069679;28;20207;-73
2021/12/03 02:07:32;;;;;;;5.73;2.30;;;;;;;;;;5073527;28;20554;-72
2021/12/03 02:09:57;;;;;;;12.40;2.90;;;;;;;;;;5074054;28;20184;-70
2021/12/03 02:12:23;;;;;;;9.00;3.27;;;;;;;;;;5072876;28;20248;-70
2021/12/03 02:14:48;;;;;;;5.37;2.13;;;;;;;;;;5085108;28;20279;-70
2021/12/03 02:17:13;;;;;;;5.90;2.60;;;;;;;;;;5076569;28;20205;-69
2021/12/03 02:19:39;;;;;;;7.13;2.70;;;;;;;;;;5071116;28;20181;-70
2021/12/03 02:22:04;;;;;;;4.23;2.60;;;;;;;;;;5071490;28;20237;-70
2021/12/03 02:24:30;;;;;;;6.30;2.77;;;;;;;;;;5077381;22;20327;-71
2021/12/03 02:26:55;;;;;;;12.77;2.07;;;;;;;;;;5038102;28;20647;-70
2021/12/03 02:29:20;;;;;;;3.47;2.30;;;;;;;;;;5058660;28;20192;-72
2021/12/03 02:31:45;;;;;;;6.27;3.23;;;;;;;;;;5056176;28;20180;-73
2021/12/03 02:34:10;;;;;;;4.33;2.10;;;;;;;;;;5037049;28;20588;-70
2021/12/03 02:36:36;;;;;;;5.23;2.63;;;;;;;;;;5058706;28;20181;-69
2021/12/03 02:39:01;;;;;;;8.30;3.07;;;;;;;;;;5054874;28;20565;-71
2021/12/03 02:41:26;;;;;;;5.63;3.07;;;;;;;;;;5057233;28;20319;-70
2021/12/03 02:43:52;;;;;;;4.93;2.67;;;;;;;;;;5054420;28;20197;-70
2021/12/03 02:46:17;;;;;;;5.93;2.47;;;;;;;;;;5052798;28;20220;-71
2021/12/03 02:48:43;;;;;;;10.43;2.63;;;;;;;;;;5061980;28;20215;-72
2021/12/03 02:51:08;;;;;;;7.47;2.77;;;;;;;;;;5067617;28;20267;-71
2021/12/03 02:53:34;;;;;;;6.87;3.07;;;;;;;;;;5051303;28;20189;-71
2021/12/03 02:56:00;;;;;;;11.20;3.50;;;;;;;;;;5069362;28;20180;-72
2021/12/03 02:58:25;;;;;;;5.03;3.33;;;;;;;;;;5065212;28;20204;-71
2021/12/03 03:00:51;;;;;;;8.63;3.97;;;;;;;;;;5063722;28;20581;-72
2021/12/03 03:03:16;;;;;;;9.60;4.80;;;;;;;;;;5068884;28;20684;-72
2021/12/03 03:05:45;;;;;;;10.80;4.07;;;;;;;;;;5069242;28;20200;-71
2021/12/03 03:08:10;;;;;;;8.87;4.20;;;;;;;;;;5068062;28;20247;-73
2021/12/03 03:10:41;;;;;;;12.33;5.00;;;;;;;;;;5071825;28;20645;-71
2021/12/03 03:13:06;;;;;;;7.30;4.73;;;;;;;;;;5066391;28;20185;-73
2021/12/03 03:15:32;;;;;;;9.93;4.60;;;;;;;;;;5066485;28;20208;-71
2021/12/03 03:18:07;;;;;;;9.70;4.33;;;;;;;;;;5072419;28;20536;-71
2021/12/03 03:20:32;;;;;;;6.17;4.10;;;;;;;;;;5066959;28;20204;-71
2021/12/03 03:22:57;;;;;;;11.87;4.70;;;;;;;;;;5068130;28;20252;-72
2021/12/03 03:25:22;;;;;;;13.90;5.20;;;;;;;;;;5070179;28;20672;-71
2021/12/03 03:27:48;;;;;;;11.50;6.03;;;;;;;;;;5067689;28;20181;-72
2021/12/03 03:30:14;;;;;;;11.03;5.80;;;;;;;;;;5070098;28;20176;-71
2021/12/03 03:32:41;;;;;;;15.53;7.87;;;;;;;;;;5051685;28;20224;-72
2021/12/03 03:35:06;;;;;;;16.70;8.33;;;;;;;;;;5070525;28;20326;-72
2021/12/03 03:37:32;;;;;;;14.30;7.83;;;;;;;;;;5070291;28;20268;-72
2021/12/03 03:39:57;;;;;;;16.10;9.37;;;;;;;;;;5071414;28;20196;-72
2021/12/03 03:42:22;;;;;;;17.60;9.60;;;;;;;;;;5070696;28;20655;-72
2021/12/03 03:44:48;;;;;;;15.97;10.50;;;;;;;;;;5068086;28;20205;-71
2021/12/03 03:47:13;;;;;;;14.13;9.80;;;;;;;;;;5043504;28;20214;-73
2021/12/03 03:49:38;;;;;;;14.97;9.77;;;;;;;;;;5064259;28;20685;-71
2021/12/03 03:52:04;;;;;;;15.57;11.30;;;;;;;;;;5055978;28;20181;-72
2021/12/03 03:54:30;;;;;;;18.33;10.17;;;;;;;;;;5037113;28;20286;-72
2021/12/03 03:56:55;;;;;;;20.60;11.77;;;;;;;;;;5067593;28;20331;-71
2021/12/03 03:59:20;;;;;;;19.07;11.13;;;;;;;;;;5060585;28;20193;-71
2021/12/03 04:01:50;;;;;;;17.33;11.47;;;;;;;;;;5059937;28;20196;-71
2021/12/03 04:04:15;;;;;;;18.63;11.07;;;;;;;;;;5061555;28;20205;-71
2021/12/03 04:06:40;;;;;;;18.33;11.10;;;;;;;;;;5048930;28;20203;-70
2021/12/03 04:09:06;;;;;;;15.30;9.87;;;;;;;;;;5067230;28;20318;-71
2021/12/03 04:11:31;;;;;;;17.60;10.07;;;;;;;;;;5068934;28;20257;-72
2021/12/03 04:13:56;;;;;;;22.40;11.87;;;;;;;;;;5046335;28;20207;-71
2021/12/03 04:16:21;;;;;;;16.60;10.53;;;;;;;;;;5057605;28;20169;-72
2021/12/03 04:18:47;;;;;;;17.87;11.17;;;;;;;;;;5060531;28;20188;-72
2021/12/03 04:21:13;;;;;;;15.00;10.10;;;;;;;;;;5060503;28;20205;-71
2021/12/03 04:23:38;;;;;;;16.80;10.73;;;;;;;;;;5067017;28;20176;-72
2021/12/03 04:26:03;;;;;;;19.63;11.53;;;;;;;;;;5067782;28;20181;-72
2021/12/03 04:28:28;;;;;;;18.70;12.30;;;;;;;;;;5068578;28;20169;-71
2021/12/03 04:30:54;;;;;;;23.33;13.13;;;;;;;;;;5068168;28;20187;-72
2021/12/03 04:33:19;;;;;;;20.80;13.03;;;;;;;;;;5068238;28;20222;-72
2021/12/03 04:35:44;;;;;;;21.23;13.73;;;;;;;;;;5061809;28;20777;-74
2021/12/03 04:38:10;;;;;;;16.07;12.27;;;;;;;;;;5067157;28;20180;-72
2021/12/03 04:40:36;;;;;;;18.83;11.80;;;;;;;;;;5066851;28;20590;-70
2021/12/03 04:43:01;;;;;;;23.97;13.33;;;;;;;;;;5067164;28;20176;-72
2021/12/03 04:45:27;;;;;;;19.73;12.73;;;;;;;;;;5069378;28;20212;-71
2021/12/03 04:47:52;;;;;;;18.20;11.07;;;;;;;;;;5052199;28;20181;-71
2021/12/03 04:50:18;;;;;;;19.40;11.73;;;;;;;;;;5070417;28;20179;-71
2021/12/03 04:52:44;;;;;;;19.67;12.57;;;;;;;;;;5072807;28;20195;-71
2021/12/03 04:55:10;;;;;;;19.43;11.53;;;;;;;;;;5068475;28;20205;-72
2021/12/03 04:57:35;;;;;;;20.33;10.53;;;;;;;;;;5062408;28;20197;-71
2021/12/03 05:00:01;;;;;;;19.33;10.57;;;;;;;;;;5071633;28;20208;-70
2021/12/03 05:02:27;;;;;;;15.33;9.40;;;;;;;;;;5071687;28;20763;-71
2021/12/03 05:04:55;;;;;;;20.17;10.03;;;;;;;;;;5053480;28;20201;-71
2021/12/03 05:10:04;;;;;;;17.90;10.87;;;;;;;;;;5071577;28;20306;-72
2021/12/03 05:12:29;;;;;;;14.00;10.00;;;;;;;;;;5059758;28;20275;-73
2021/12/03 05:14:54;;;;;;;16.03;10.17;;;;;;;;;;5069499;28;20341;-71
2021/12/03 05:17:19;;;;;;;18.83;10.80;;;;;;;;;;5068303;28;20635;-71
2021/12/03 05:19:44;;;;;;;18.10;10.47;;;;;;;;;;5071917;28;20188;-70
2021/12/03 05:22:12;;;;;;;16.27;11.33;;;;;;;;;;5054407;28;20635;-71
2021/12/03 05:24:37;;;;;;;23.03;10.83;;;;;;;;;;5061523;28;20209;-71
2021/12/03 05:27:02;;;;;;;16.23;11.10;;;;;;;;;;5067866;28;20612;-71
2021/12/03 05:29:28;;;;;;;20.63;10.47;;;;;;;;;;5050935;28;20184;-70
2021/12/03 05:31:53;;;;;;;20.00;11.13;;;;;;;;;;5065851;28;20174;-71
2021/12/03 05:34:18;;;;;;;18.77;11.53;;;;;;;;;;5067596;28;20760;-70
2021/12/03 05:36:46;;;;;;;23.33;12.87;;;;;;;;;;5071002;28;20188;-73
2021/12/03 05:39:11;;;;;;;21.70;10.70;;;;;;;;;;5071320;28;20185;-72
2021/12/03 05:41:36;;;;;;;21.17;10.33;;;;;;;;;;5067270;28;20266;-71
2021/12/03 05:44:03;;;;;;;22.90;11.13;;;;;;;;;;5063314;28;20270;-72
2021/12/03 05:46:28;;;;;;;15.97;11.20;;;;;;;;;;5070350;28;20181;-72
2021/12/03 05:48:53;;;;;;;18.43;10.63;;;;;;;;;;5067118;28;20188;-71
2021/12/03 05:51:18;;;;;;;24.13;10.20;;;;;;;;;;5050690;28;20272;-72
2021/12/03 05:53:43;;;;;;;20.40;10.27;;;;;;;;;;5062361;28;20198;-72
2021/12/03 05:56:09;;;;;;;24.60;10.83;;;;;;;;;;5063811;28;20265;-71
2021/12/03 05:58:34;;;;;;;25.13;10.00;;;;;;;;;;5053716;28;20264;-71
2021/12/03 06:00:59;;;;;;;16.50;10.20;;;;;;;;;;5043209;28;20209;-71
2021/12/03 06:03:24;;;;;;;19.03;9.93;;;;;;;;;;5070716;28;20203;-71
2021/12/03 06:05:50;;;;;;;23.73;11.10;;;;;;;;;;5054348;28;20260;-71
2021/12/03 06:08:15;;;;;;;24.13;11.63;;;;;;;;;;5061741;28;20255;-71
2021/12/03 06:10:40;;;;;;;16.07;9.80;;;;;;;;;;5059453;28;20654;-71
2021/12/03 06:13:05;;;;;;;21.43;9.73;;;;;;;;;;5066613;28;20177;-72
2021/12/03 06:15:31;;;;;;;18.70;9.23;;;;;;;;;;5062542;28;20209;-72
2021/12/03 06:17:56;;;;;;;19.67;9.83;;;;;;;;;;5067279;28;20230;-71
2021/12/03 06:20:23;;;;;;;22.90;9.57;;;;;;;;;;5060382;28;20211;-72
2021/12/03 06:22:48;;;;;;;16.80;8.10;;;;;;;;;;5070064;28;20248;-71
2021/12/03 06:25:14;;;;;;;18.17;9.20;;;;;;;;;;5050713;28;20390;-72
2021/12/03 06:27:39;;;;;;;15.93;8.33;;;;;;;;;;5071625;28;20184;-71
2021/12/03 06:30:07;;;;;;;19.20;9.90;;;;;;;;;;5061985;28;20251;-72
2021/12/03 06:32:32;;;;;;;17.13;8.83;;;;;;;;;;5044584;28;20186;-72
2021/12/03 06:34:57;;;;;;;22.47;9.77;;;;;;;;;;5051294;28;20712;-71
2021/12/03 06:37:22;;;;;;;18.17;8.83;;;;;;;;;;5066223;28;20604;-72
2021/12/03 06:39:47;;;;;;;20.87;7.93;;;;;;;;;;5066811;28;20173;-71
2021/12/03 06:42:13;;;;;;;17.70;8.40;;;;;;;;;;5073938;28;20180;-72
2021/12/03 06:44:38;;;;;;;25.63;9.53;;;;;;;;;;5069185;28;20223;-71
2021/12/03 06:47:03;;;;;;;14.07;8.87;;;;;;;;;;5071301;28;20226;-72
2021/12/03 06:49:30;;;;;;;18.60;7.87;;;;;;;;;;5066615;28;20207;-72
2021/12/03 06:52:01;;;;;;;15.13;8.03;;;;;;;;;;5047791;28;20651;-71
2021/12/03 06:54:30;;;;;;;22.73;7.93;;;;;;;;;;5069552;28;20205;-70
2021/12/03 06:56:55;;;;;;;16.20;7.10;;;;;;;;;;5070495;28;20258;-71
2021/12/03 06:59:22;;;;;;;15.30;8.30;;;;;;;;;;5069280;28;20682;-72
2021/12/03 07:01:48;;;;;;;17.60;7.53;;;;;;;;;;5064458;28;20227;-71
2021/12/03 07:04:13;;;;;;;15.47;7.20;;;;;;;;;;5068158;28;20196;-71
2021/12/03 07:06:38;;;;;;;15.77;7.70;;;;;;;;;;5064834;28;20665;-72
2021/12/03 07:09:04;;;;;;;22.33;8.60;;;;;;;;;;5070275;28;20649;-72
2021/12/03 07:11:30;;;;;;;14.00;7.13;;;;;;;;;;5070903;28;20181;-72
2021/12/03 07:13:55;;;;;;;12.93;8.33;;;;;;;;;;5060800;28;20197;-72
2021/12/03 07:16:20;;;;;;;21.93;8.63;;;;;;;;;;5050739;28;20184;-71
2021/12/03 07:18:45;;;;;;;14.37;8.13;;;;;;;;;;5068991;28;20606;-72
2021/12/03 07:21:11;;;;;;;23.23;9.73;;;;;;;;;;5067320;28;20243;-70
2021/12/03 07:23:36;;;;;;;16.87;9.43;;;;;;;;;;5068622;28;20193;-72
2021/12/03 07:26:02;;;;;;;15.87;9.10;;;;;;;;;;5066693;28;20188;-72
2021/12/03 07:28:28;;;;;;;13.33;7.83;;;;;;;;;;5062628;28;20537;-72
2021/12/03 07:30:53;;;;;;;16.30;8.27;;;;;;;;;;5069272;28;20181;-72
2021/12/03 07:33:18;;;;;;;16.13;8.03;;;;;;;;;;5067724;28;20185;-72
2021/12/03 07:35:45;;;;;;;11.00;6.57;;;;;;;;;;5068845;28;20209;-73
2021/12/03 07:38:11;;;;;;;18.23;7.63;;;;;;;;;;5060567;28;20267;-72
2021/12/03 07:40:36;;;;;;;17.63;6.80;;;;;;;;;;5067367;28;20303;-71
2021/12/03 07:43:01;;;;;;;15.37;6.40;;;;;;;;;;5067798;28;20729;-72
2021/12/03 07:45:26;;;;;;;13.73;6.90;;;;;;;;;;5070131;28;20738;-71
2021/12/03 07:47:52;;;;;;;15.37;6.13;;;;;;;;;;5078277;28;20198;-71
2021/12/03 07:50:17;;;;;;;12.10;5.60;;;;;;;;;;5071114;28;20165;-70
2021/12/03 07:52:43;;;;;;;10.33;6.03;;;;;;;;;;5061064;28;20181;-70
2021/12/03 07:55:08;;;;;;;12.27;6.13;;;;;;;;;;5068433;28;20215;-72
2021/12/03 07:57:34;;;;;;;12.33;5.53;;;;;;;;;;5063473;28;20201;-70
2021/12/03 07:59:59;;;;;;;12.27;5.73;;;;;;;;;;5069984;28;20165;-71
2021/12/03 08:02:24;;;;;;;15.83;5.97;;;;;;;;;;5052831;28;20225;-70
2021/12/03 08:04:49;;;;;;;16.47;6.27;;;;;;;;;;5058281;28;20678;-71
2021/12/03 08:07:15;;;;;;;16.60;6.93;;;;;;;;;;5067917;28;20169;-70
2021/12/03 08:09:40;;;;;;;15.10;7.37;;;;;;;;;;5064183;28;20529;-71
2021/12/03 08:12:06;;;;;;;16.23;7.57;;;;;;;;;;5064558;28;20610;-71
2021/12/03 08:14:31;;;;;;;17.63;7.83;;;;;;;;;;5065176;28;20201;-72
2021/12/03 08:16:57;;;;;;;20.67;7.80;;;;;;;;;;5066459;28;20264;-72
2021/12/03 08:19:22;;;;;;;21.73;8.60;;;;;;;;;;5066988;28;20177;-70
2021/12/03 08:21:47;;;;;;;23.47;10.87;;;;;;;;;;5070640;28;20258;-70
2021/12/03 08:24:12;;;;;;;24.50;9.10;;;;;;;;;;5079925;22;20224;-71
2021/12/03 08:26:38;;;;;;;27.37;8.67;;;;;;;;;;5090476;28;20228;-71
2021/12/03 08:29:04;;;;;;;26.17;8.97;;;;;;;;;;5086229;28;20206;-70
2021/12/03 08:31:29;;;;;;;29.70;8.37;;;;;;;;;;5088162;28;20177;-71
2021/12/03 08:33:55;;;;;;;17.60;7.30;;;;;;;;;;5086056;28;20225;-72
2021/12/03 08:36:20;;;;;;;25.83;8.30;;;;;;;;;;5067615;28;20184;-71
2021/12/03 08:38:46;;;;;;;16.93;7.33;;;;;;;;;;5081978;28;20272;-70
2021/12/03 08:41:15;;;;;;;17.80;7.30;;;;;;;;;;5086043;28;20200;-71
2021/12/03 08:43:41;;;;;;;20.20;8.27;;;;;;;;;;5082210;28;20173;-71
2021/12/03 08:46:13;;;;;;;20.70;7.43;;;;;;;;;;5085124;28;20207;-71
2021/12/03 08:48:41;;;;;;;22.87;9.27;;;;;;;;;;5086572;28;20172;-70
2021/12/03 08:51:12;;;;;;;15.90;5.40;;;;;;;;;;5070482;28;20191;-72
2021/12/03 08:56:21;;;;;;;17.87;6.63;;;;;;;;;;5088533;28;20621;-70
2021/12/03 08:58:46;;;;;;;21.10;6.93;;;;;;;;;;5088974;28;20263;-70
2021/12/03 09:01:13;;;;;;;22.43;7.43;;;;;;;;;;5079240;28;20287;-70
2021/12/03 09:03:38;;;;;;;19.30;6.73;;;;;;;;;;5084931;28;20744;-71
2021/12/03 09:06:04;;;;;;;24.40;8.20;;;;;;;;;;5079726;28;20196;-70
2021/12/03 09:08:29;;;;;;;24.10;6.20;;;;;;;;;;5084049;28;20165;-71
2021/12/03 09:10:54;;;;;;;13.93;5.60;;;;;;;;;;5082472;28;20593;-71
2021/12/03 09:13:20;;;;;;;15.63;6.30;;;;;;;;;;5080743;28;20240;-71
2021/12/03 09:15:53;;;;;;;24.27;5.53;;;;;;;;;;5085851;28;20236;-71
2021/12/03 09:18:26;;;;;;;12.67;5.03;;;;;;;;;;5095636;28;20184;-70
2021/12/03 09:20:56;;;;;;;18.37;6.00;;;;;;;;;;5069996;28;20701;-71
2021/12/03 09:23:46;;;;;;;12.53;5.30;;;;;;;;;;5070616;28;20177;-71
2021/12/03 09:26:14;;;;;;;16.07;5.33;;;;;;;;;;5068781;28;20215;-71
2021/12/03 09:28:42;;;;;;;14.33;4.27;;;;;;;;;;5086055;28;20181;-71
2021/12/03 09:31:09;;;;;;;17.13;5.40;;;;;;;;;;5084511;28;20557;-71
2021/12/03 09:33:36;;;;;;;14.83;4.20;;;;;;;;;;5083633;28;20181;-71
2021/12/03 09:36:03;;;;;;;13.33;4.70;;;;;;;;;;5067663;28;20703;-71
2021/12/03 09:38:32;;;;;;;7.83;3.40;;;;;;;;;;5082196;28;20348;-70
2021/12/03 09:41:00;;;;;;;9.97;3.87;;;;;;;;;;5060454;28;20208;-71
2021/12/03 09:43:26;;;;;;;8.93;3.77;;;;;;;;;;5082685;28;20211;-71
2021/12/03 09:46:33;;;;;;;11.00;3.90;;;;;;;;;;5088023;28;20216;-72
2021/12/03 09:48:57;;;;;;;13.23;3.40;;;;;;;;;;5076004;28;20196;-70
2021/12/03 09:51:25;;;;;;;12.37;4.37;;;;;;;;;;5088063;28;20187;-70
2021/12/03 09:56:30;;;;;;;8.93;3.67;;;;;;;;;;5087448;28;20186;-71
2021/12/03 10:02:15;;;;;;;10.83;3.53;;;;;;;;;;5088820;28;20293;-69
2021/12/03 10:15:36;;;;;;;11.10;3.43;;;;;;;;;;5041278;28;20219;-70
2021/12/03 10:18:29;;;;;;;12.83;4.47;;;;;;;;;;5088998;28;20279;-70
2021/12/03 10:26:39;;;;;;;10.47;3.57;;;;;;;;;;5083506;28;20218;-70
2021/12/03 10:29:15;;;;;;;10.43;4.20;;;;;;;;;;5082508;28;20169;-71
2021/12/03 10:37:18;;;;;;;6.30;3.20;;;;;;;;;;5089247;28;20707;-70
2021/12/03 10:39:53;;;;;;;12.17;4.13;;;;;;;;;;5066938;28;20180;-72
2021/12/03 10:50:38;;;;;;;9.53;4.40;;;;;;;;;;5088183;28;20233;-70
2021/12/03 10:58:26;;;;;;;11.10;3.97;;;;;;;;;;5087049;28;20545;-70
2021/12/03 11:06:45;;;;;;;13.23;4.60;;;;;;;;;;5083461;28;20692;-70
2021/12/03 11:12:14;;;;;;;10.63;4.47;;;;;;;;;;5080027;28;20242;-70
2021/12/03 11:28:20;;;;;;;13.23;5.67;;;;;;;;;;5082574;28;20630;-70
2021/12/03 11:31:03;;;;;;;6.83;3.90;;;;;;;;;;5081369;28;20322;-70
2021/12/03 11:39:38;;;;;;;12.63;4.17;;;;;;;;;;5036146;28;20635;-71
2021/12/03 11:43:10;;;;;;;9.80;3.63;;;;;;;;;;5075809;28;20215;-71
2021/12/03 11:49:09;;;;;;;9.23;4.00;;;;;;;;;;5082436;28;20188;-70
2021/12/03 11:59:39;;;;;;;7.30;3.37;;;;;;;;;;5088476;28;20182;-71
2021/12/03 12:18:58;;;;;;;4.67;3.00;;;;;;;;;;5075211;28;20179;-70
2021/12/03 13:23:51;;;;;;;4.30;2.97;;;;;;;;;;5088402;28;20602;-70
2021/12/03 14:01:19;;;;;;;6.73;5.27;;;;;;;;;;5090975;28;20681;-71
2021/12/03 14:09:40;;;;;;;6.10;5.27;;;;;;;;;;5083885;28;20182;-70
2021/12/03 14:12:57;;;;;;;11.20;5.70;;;;;;;;;;5084065;28;20673;-71
2021/12/03 14:55:35;;;;;;;10.60;9.50;;;;;;;;;;5061164;28;20203;-72
2021/12/03 14:58:02;;;;;;;10.97;9.03;;;;;;;;;;5072890;28;20173;-72
2021/12/03 15:00:36;;;;;;;11.57;9.80;;;;;;;;;;5069884;28;20775;-72
2021/12/03 15:05:44;;;;;;;13.17;10.27;;;;;;;;;;5069319;28;20678;-72
2021/12/03 15:08:13;;;;;;;11.40;10.20;;;;;;;;;;5073348;28;20184;-73
2021/12/03 15:18:58;;;;;;;11.63;10.10;;;;;;;;;;5065455;28;20191;-73
2021/12/03 15:21:47;;;;;;;11.73;10.27;;;;;;;;;;5073541;28;20212;-73
2021/12/03 15:29:54;;;;;;;13.67;11.47;;;;;;;;;;5072576;28;20207;-73
2021/12/03 15:32:43;;;;;;;12.80;11.50;;;;;;;;;;5070550;28;20243;-73
2021/12/03 15:35:15;;;;;;;13.13;11.83;;;;;;;;;;5074411;28;20204;-71
2021/12/03 15:40:22;;;;;;;13.50;11.83;;;;;;;;;;5073928;28;20215;-73
2021/12/03 16:04:30;;;;;;;15.07;13.40;;;;;;;;;;5067744;28;20180;-71
2021/12/03 16:07:04;;;;;;;16.00;13.70;;;;;;;;;;5070533;28;20238;-72
2021/12/03 16:12:25;;;;;;;16.10;14.50;;;;;;;;;;5069269;28;20719;-73
2021/12/03 16:20:23;;;;;;;19.10;16.43;;;;;;;;;;5069213;28;20216;-72
2021/12/03 16:46:46;;;;;;;20.83;16.60;;;;;;;;;;5075488;28;20576;-72
2021/12/03 16:51:56;;;;;;;18.43;16.43;;;;;;;;;;5074245;28;20563;-72
2021/12/03 16:54:27;;;;;;;18.40;15.70;;;;;;;;;;5072083;28;20185;-72
2021/12/03 16:56:55;;;;;;;21.40;17.30;;;;;;;;;;5069348;28;20262;-73
2021/12/03 16:59:22;;;;;;;20.07;17.67;;;;;;;;;;5073312;28;20557;-73
2021/12/03 17:02:03;;;;;;;20.57;18.40;;;;;;;;;;5075663;28;20285;-72
2021/12/03 17:12:36;;;;;;;19.27;16.70;;;;;;;;;;5072640;28;20230;-71
2021/12/03 17:30:46;;;;;;;18.17;16.20;;;;;;;;;;5065630;28;20306;-71
2021/12/03 18:00:16;;;;;;;17.97;14.87;;;;;;;;;;5071097;28;20182;-72
2021/12/03 18:02:46;;;;;;;16.67;14.37;;;;;;;;;;5072383;28;20590;-72
2021/12/03 18:05:36;;;;;;;17.00;14.00;;;;;;;;;;5053735;28;20192;-72
2021/12/03 18:08:11;;;;;;;16.67;14.13;;;;;;;;;;5071851;28;20169;-72
2021/12/03 18:11:23;;;;;;;15.97;14.30;;;;;;;;;;5064358;28;20276;-72
2021/12/03 18:14:20;;;;;;;16.20;14.53;;;;;;;;;;5070435;28;20243;-70
2021/12/03 18:51:34;;;;;;;16.20;13.23;;;;;;;;;;5069500;28;20176;-72
2021/12/03 18:54:24;;;;;;;15.87;14.07;;;;;;;;;;5071075;28;20176;-72
2021/12/03 18:56:52;;;;;;;19.83;14.20;;;;;;;;;;5060275;28;20181;-72
2021/12/03 18:59:18;;;;;;;16.03;13.07;;;;;;;;;;5059504;28;20560;-72
2021/12/03 19:01:44;;;;;;;17.13;13.93;;;;;;;;;;5051382;28;20204;-72
2021/12/03 19:06:43;;;;;;;19.17;15.57;;;;;;;;;;5071616;28;20291;-72
2021/12/03 19:09:35;;;;;;;19.43;14.03;;;;;;;;;;5074545;28;20211;-70
2021/12/03 19:12:07;;;;;;;20.50;14.70;;;;;;;;;;5066385;28;20189;-72
2021/12/03 19:14:36;;;;;;;17.13;14.17;;;;;;;;;;5049756;28;20577;-72
2021/12/03 19:17:01;;;;;;;18.23;15.07;;;;;;;;;;5072329;28;20177;-72
2021/12/03 19:19:28;;;;;;;18.57;14.70;;;;;;;;;;5076427;28;20165;-71
2021/12/03 19:21:57;;;;;;;18.97;14.93;;;;;;;;;;5072766;28;20255;-71
2021/12/03 19:24:22;;;;;;;18.00;14.53;;;;;;;;;;5070339;28;20172;-71
2021/12/03 19:26:47;;;;;;;19.23;15.23;;;;;;;;;;5071834;28;20178;-71
2021/12/03 19:29:17;;;;;;;19.67;14.50;;;;;;;;;;5071791;28;20169;-72
2021/12/03 19:31:43;;;;;;;17.83;14.27;;;;;;;;;;5083334;28;20599;-72
2021/12/03 19:34:09;;;;;;;18.63;15.17;;;;;;;;;;5073644;28;20195;-72
2021/12/03 19:36:39;;;;;;;18.00;14.37;;;;;;;;;;5061956;28;20180;-70
2021/12/03 19:39:05;;;;;;;17.73;13.77;;;;;;;;;;5053526;28;21847;-71
2021/12/03 19:41:36;;;;;;;19.33;15.13;;;;;;;;;;5056432;28;20986;-71
2021/12/03 19:44:03;;;;;;;19.40;14.47;;;;;;;;;;5068549;28;20264;-71
2021/12/03 19:46:34;;;;;;;18.73;14.97;;;;;;;;;;5068686;28;20189;-72
2021/12/03 19:49:14;;;;;;;18.97;15.67;;;;;;;;;;5072983;28;20179;-72
2021/12/03 19:51:46;;;;;;;18.83;14.60;;;;;;;;;;5069702;28;20249;-70
2021/12/03 19:54:12;;;;;;;17.03;14.30;;;;;;;;;;5070879;28;20666;-73
2021/12/03 19:56:40;;;;;;;18.03;14.33;;;;;;;;;;5065177;28;20188;-73
2021/12/03 19:59:05;;;;;;;17.53;14.57;;;;;;;;;;5069295;28;20173;-71
2021/12/03 20:01:34;;;;;;;17.53;14.13;;;;;;;;;;5069048;28;20219;-72
2021/12/03 20:04:00;;;;;;;16.90;13.40;;;;;;;;;;5053446;28;20589;-72
2021/12/03 20:06:26;;;;;;;15.50;12.60;;;;;;;;;;5069103;28;20193;-72
2021/12/03 20:08:54;;;;;;;15.07;12.77;;;;;;;;;;5052608;28;20173;-72
2021/12/03 20:11:20;;;;;;;15.93;12.70;;;;;;;;;;5071014;28;20585;-72
2021/12/03 20:13:49;;;;;;;17.10;13.67;;;;;;;;;;5074447;28;20669;-72
2021/12/03 20:19:38;;;;;;;16.17;12.80;;;;;;;;;;5016624;28;20235;-72
2021/12/03 20:22:06;;;;;;;14.70;12.30;;;;;;;;;;5077858;28;20208;-73
2021/12/03 20:24:49;;;;;;;15.27;12.37;;;;;;;;;;5078198;28;20307;-74
2021/12/03 20:27:17;;;;;;;14.03;12.27;;;;;;;;;;5069587;28;20180;-74
2021/12/03 20:29:49;;;;;;;17.77;14.27;;;;;;;;;;5073355;28;20176;-74
2021/12/03 20:32:21;;;;;;;15.70;13.00;;;;;;;;;;5080270;28;20321;-74
2021/12/03 20:34:53;;;;;;;17.20;13.73;;;;;;;;;;5075087;28;20327;-74
2021/12/03 20:37:23;;;;;;;15.50;13.30;;;;;;;;;;5069539;28;20184;-74
2021/12/03 20:39:50;;;;;;;15.03;13.20;;;;;;;;;;5066520;28;20334;-74
2021/12/03 20:42:23;;;;;;;16.90;13.77;;;;;;;;;;5071872;28;20239;-74
2021/12/03 20:50:01;;;;;;;16.97;12.43;;;;;;;;;;5066925;28;20218;-75
2021/12/03 21:13:19;;;;;;;13.47;11.10;;;;;;;;;;5072751;28;20185;-74
2021/12/03 21:18:44;;;;;;;11.87;10.17;;;;;;;;;;5069087;28;20183;-76
2021/12/03 21:21:12;;;;;;;13.23;11.80;;;;;;;;;;5050810;28;20200;-76
2021/12/03 21:23:45;;;;;;;13.80;11.80;;;;;;;;;;5067956;28;20213;-74
2021/12/03 21:26:14;;;;;;;13.53;11.33;;;;;;;;;;5059316;28;20262;-74
2021/12/03 21:28:55;;;;;;;15.80;11.50;;;;;;;;;;5071263;28;20177;-74
2021/12/03 21:31:34;;;;;;;11.97;10.73;;;;;;;;;;5067926;28;20189;-74
2021/12/03 21:42:02;;;;;;;12.37;9.87;;;;;;;;;;5060106;28;20384;-77
2021/12/03 21:44:27;;;;;;;11.70;9.90;;;;;;;;;;5062288;28;20621;-74
2021/12/03 21:46:52;;;;;;;13.90;11.53;;;;;;;;;;5077558;28;20750;-75
2021/12/03 21:49:17;;;;;;;11.37;10.00;;;;;;;;;;5072388;28;20287;-74
2021/12/03 21:51:43;;;;;;;11.57;9.90;;;;;;;;;;5071659;28;20188;-75
2021/12/03 21:54:09;;;;;;;13.33;10.83;;;;;;;;;;5071170;28;20616;-74
2021/12/03 21:56:35;;;;;;;13.37;10.20;;;;;;;;;;5071597;28;20579;-74
2021/12/03 21:59:00;;;;;;;13.27;10.70;;;;;;;;;;5055465;28;20181;-74
2021/12/03 22:01:26;;;;;;;12.43;11.10;;;;;;;;;;5075432;28;20200;-74
2021/12/03 22:03:52;;;;;;;12.10;9.97;;;;;;;;;;5070794;28;20173;-75